As Fabrizia — CQIU3 — position and weather

sailwx.info

Track history (hours):
 
Tides and Currents Weather Stations Pressure Air Temp Water Temp Dewpoint Dewpoint Depression Visibility Wind Speed Wind Dir Waves Ship Positions

As Fabrizia

Last reported at 2017-Nov-12 08:42 UTC. Time now 2017-Nov-24 18:48 UTC.
Position N 25°26' W 079°38'.
Warning: this ship's position is 12 days out of date.

Length 166 m.

Type: Ship (hazmat cat A). MMSI: 255806069.

Date/timePositionNaut miles runAvg speedWind from/ knotsBaromVisibWave heightAir tempDewpointWater temp
2017-Nov-12 08:42N 25°26' W 079°38'313.3
2017-Nov-12 08:30N 25°29' W 079°39'612.0
2017-Nov-12 08:00N 25°35' W 079°40'713.2
2017-Nov-12 07:30N 25°40' W 079°44'714.4
2017-Nov-12 07:00N 25°43' W 079°51'714.6
2017-Nov-12 06:30N 25°45' W 079°59'611.7
2017-Nov-12 06:00N 25°46' W 080°05'3 5.6
2017-Nov-12 05:30N 25°46' W 080°09'0 0.7
2017-Nov-12 05:00N 25°46' W 080°09'0 0.0
2017-Nov-12 04:30N 25°46' W 080°09'0 0.0
2017-Nov-12 03:59N 25°46' W 080°09'0 0.0
2017-Nov-12 03:30N 25°46' W 080°09'0 0.0
2017-Nov-12 03:00N 25°46' W 080°09'0 0.0
2017-Nov-12 02:30N 25°46' W 080°09'0 0.0
2017-Nov-12 02:00N 25°46' W 080°09'0 0.0
2017-Nov-12 01:31N 25°46' W 080°09'0 0.0
2017-Nov-12 01:01N 25°46' W 080°09'0 0.0
2017-Nov-12 00:31N 25°46' W 080°09'0 0.0
2017-Nov-11 23:58N 25°46' W 080°09'0 0.0
2017-Nov-11 23:28N 25°46' W 080°09'0 0.0
2017-Nov-11 22:58N 25°46' W 080°09'0 0.0
2017-Nov-11 22:30N 25°46' W 080°09'0 0.0
2017-Nov-11 22:00N 25°46' W 080°09'0 0.0
2017-Nov-11 21:30N 25°46' W 080°09'0 0.0
2017-Nov-11 21:00N 25°46' W 080°09'0 0.0
2017-Nov-11 20:30N 25°46' W 080°09'0 0.0
2017-Nov-11 20:00N 25°46' W 080°09'0 0.0
2017-Nov-11 19:30N 25°46' W 080°09'0 0.0
2017-Nov-11 18:50N 25°46' W 080°09'1 2.8
2017-Nov-11 18:30N 25°46' W 080°08'4 8.4
2017-Nov-11 18:01N 25°46' W 080°03'4 8.6
2017-Nov-11 17:30N 25°50' W 080°01'510.9
2017-Nov-11 17:01N 25°56' W 080°01'611.6
2017-Nov-11 16:31N 26°02' W 080°00'611.6
2017-Nov-11 16:01N 26°07' W 079°60'611.5
2017-Nov-11 15:30N 26°13' W 079°59'612.4
2017-Nov-11 15:00N 26°19' W 079°59'713.8
2017-Nov-11 14:31N 26°26' W 079°58'713.4
2017-Nov-11 14:01N 26°33' W 079°58'713.8
2017-Nov-11 13:30N 26°40' W 079°57'713.7
2017-Nov-11 13:00N 26°46' W 079°56'713.9
2017-Nov-11 12:30N 26°53' W 079°55'713.8
2017-Nov-11 12:00N 27°00' W 079°55'28014.2
2017-Nov-10 16:18N 31°40' W 080°14'914.2
2017-Nov-10 15:41N 31°49' W 080°15'412.2
2017-Nov-10 15:23N 31°52' W 080°15'4 9.7
2017-Nov-10 14:57N 31°54' W 080°20'5 9.7
2017-Nov-10 14:25N 31°56' W 080°26'4 9.4
2017-Nov-10 14:00N 31°57' W 080°30'5 9.4
2017-Nov-10 13:30N 31°57' W 080°36'5 9.5
2017-Nov-10 13:00N 31°58' W 080°41'510.2
2017-Nov-10 12:30N 31°60' W 080°47'713.2
2017-Nov-10 12:00N 32°02' W 080°54'612.9
2017-Nov-10 11:30N 32°06' W 081°00'4 8.8
2017-Nov-10 11:00N 32°05' W 081°05'3 6.1
2017-Nov-10 10:30N 32°07' W 081°08'0 0.5
2017-Nov-10 10:00N 32°07' W 081°08'0 0.0
2017-Nov-10 09:26N 32°07' W 081°08'0 0.1
2017-Nov-10 09:00N 32°07' W 081°08'0 0.0
2017-Nov-10 08:29N 32°07' W 081°08'0 0.0
2017-Nov-10 07:59N 32°07' W 081°08'0 0.0
2017-Nov-10 07:29N 32°07' W 081°08'0 0.0
2017-Nov-10 06:59N 32°07' W 081°08'0 0.0
2017-Nov-10 06:29N 32°07' W 081°08'0 0.0
2017-Nov-10 05:59N 32°07' W 081°08'0 0.0
2017-Nov-10 05:29N 32°07' W 081°08'0 0.0
2017-Nov-10 04:47N 32°07' W 081°08'0 0.0
2017-Nov-10 04:29N 32°07' W 081°08'0 0.0
2017-Nov-10 03:59N 32°07' W 081°08'0 0.0
2017-Nov-10 03:29N 32°07' W 081°08'0 0.0
2017-Nov-10 02:59N 32°07' W 081°08'0 0.0
2017-Nov-10 02:29N 32°07' W 081°08'0 0.0
2017-Nov-10 01:59N 32°07' W 081°08'0 0.0
2017-Nov-10 01:23N 32°07' W 081°08'0 0.0
2017-Nov-10 00:59N 32°07' W 081°08'0 0.0
2017-Nov-10 00:29N 32°07' W 081°08'0 0.0
2017-Nov-09 23:59N 32°07' W 081°08'0 0.0
2017-Nov-09 23:23N 32°07' W 081°08'0 0.0
2017-Nov-09 22:59N 32°07' W 081°08'0 0.0
2017-Nov-09 22:29N 32°07' W 081°08'0 0.0
2017-Nov-09 21:59N 32°07' W 081°08'0 0.3
2017-Nov-09 21:30N 32°07' W 081°08'2 4.9
2017-Nov-09 21:00N 32°05' W 081°06'3 5.4
2017-Nov-09 20:30N 32°05' W 081°03'4 8.0
2017-Nov-09 20:00N 32°04' W 080°58'5 9.0
2017-Nov-09 19:30N 32°02' W 080°54'612.5
2017-Nov-09 19:00N 31°60' W 080°47'713.8
2017-Nov-09 18:30N 31°58' W 080°39'1 1.4
2017-Nov-09 17:49N 31°57' W 080°38'0 0.1
2017-Nov-09 17:25N 31°57' W 080°38'0 0.0
2017-Nov-09 16:55N 31°57' W 080°38'0 0.0
2017-Nov-09 16:25N 31°57' W 080°38'0 0.0
2017-Nov-09 15:55N 31°57' W 080°38'0 0.0
2017-Nov-09 13:55N 31°57' W 080°38'0 0.0
2017-Nov-09 13:25N 31°57' W 080°38'0 0.0
2017-Nov-09 12:59N 31°57' W 080°38'0 0.0
2017-Nov-09 12:27N 31°57' W 080°38'0 0.1
2017-Nov-09 12:00N 31°57' W 080°38'0 0.0
2017-Nov-09 11:30N 31°57' W 080°38'0 0.0
2017-Nov-09 10:54N 31°57' W 080°38'0 0.1
2017-Nov-09 10:30N 31°57' W 080°38'0 0.0
2017-Nov-09 10:00N 31°57' W 080°38'0 0.0
2017-Nov-09 09:30N 31°57' W 080°38'0 0.0
2017-Nov-09 09:00N 31°57' W 080°38'0 0.0
2017-Nov-09 08:30N 31°57' W 080°38'0 0.1
2017-Nov-09 08:01N 31°57' W 080°38'2 4.9
2017-Nov-09 07:30N 31°58' W 080°35'2 3.2
2017-Nov-09 06:50N 31°59' W 080°33'0 0.0
2017-Nov-09 06:26N 31°59' W 080°33'0 0.0
2017-Nov-09 05:51N 31°59' W 080°33'0 0.0
2017-Nov-08 21:03N 31°59' W 080°33'0 0.1
2017-Nov-08 20:57N 31°59' W 080°33'0 0.0
2017-Nov-08 20:21N 31°59' W 080°33'0 0.0
2017-Nov-08 19:57N 31°59' W 080°33'0 0.0
2017-Nov-08 19:30N 31°59' W 080°33'0 0.0
2017-Nov-08 19:00N 31°59' W 080°33'0 0.0
2017-Nov-08 18:31N 31°59' W 080°33'0 0.0
2017-Nov-08 17:58N 31°59' W 080°33'0 0.0
2017-Nov-08 17:28N 31°59' W 080°33'0 0.0
2017-Nov-08 16:58N 31°59' W 080°33'0 0.1
2017-Nov-08 16:28N 31°59' W 080°33'0 0.2
2017-Nov-08 15:58N 31°59' W 080°33'0 0.1
2017-Nov-08 15:23N 31°59' W 080°33'0 0.1
2017-Nov-08 14:49N 31°59' W 080°33'0 0.0
2017-Nov-08 14:25N 31°59' W 080°33'0 0.0
2017-Nov-08 13:55N 31°59' W 080°33'0 0.0
2017-Nov-08 13:19N 31°59' W 080°33'0 0.0
2017-Nov-08 12:55N 31°59' W 080°33'0 0.0
2017-Nov-08 12:13N 31°59' W 080°33'0 0.1
2017-Nov-08 11:55N 31°59' W 080°33'0 0.1
2017-Nov-08 11:19N 31°59' W 080°33'0 0.1
2017-Nov-08 10:49N 31°59' W 080°33'0 0.0
2017-Nov-08 10:25N 31°59' W 080°32'0 0.0
2017-Nov-08 09:55N 31°59' W 080°32'0 0.0
2017-Nov-08 09:25N 31°59' W 080°32'0 0.0
2017-Nov-08 08:49N 31°59' W 080°32'0 0.2
2017-Nov-08 08:29N 31°59' W 080°33'1 2.8
2017-Nov-08 08:00N 31°59' W 080°31'5 9.6
2017-Nov-08 07:30N 31°59' W 080°25'5 9.6
2017-Nov-08 07:00N 31°59' W 080°20'5 9.5
2017-Nov-08 06:30N 31°59' W 080°14'5 9.2
2017-Nov-08 06:00N 31°59' W 080°09'510.3
2017-Nov-08 05:30N 31°59' W 080°03'713.1
2017-Nov-08 05:00N 31°60' W 079°55'712.5
2017-Nov-08 04:27N 32°02' W 079°47'613.0
2017-Nov-08 03:58N 32°05' W 079°41'813.0
2017-Nov-08 03:23N 32°09' W 079°33'713.0
2017-Nov-08 02:49N 32°13' W 079°26'17813.2
2017-Nov-07 13:21N 34°03' W 076°39'814.6
2017-Nov-07 12:48N 34°08' W 076°32'414.9
2017-Nov-07 12:30N 34°11' W 076°28'714.7
2017-Nov-07 12:00N 34°16' W 076°21'714.8
2017-Nov-07 11:30N 34°21' W 076°15'714.6
2017-Nov-07 11:01N 34°26' W 076°08'714.7
2017-Nov-07 10:30N 34°31' W 076°01'5414.8
2017-Nov-07 06:53N 35°08' W 075°14'614.9
2017-Nov-07 06:30N 35°13' W 075°10'1514.9
2017-Nov-07 05:30N 35°27' W 075°03'31611.7
2017-Nov-06 02:30N 40°40' W 074°09'0 0.0
2017-Nov-06 02:00N 40°40' W 074°09'0 0.0
2017-Nov-06 01:30N 40°40' W 074°09'0 0.0
2017-Nov-06 01:00N 40°40' W 074°09'0 0.0
2017-Nov-06 00:30N 40°40' W 074°09'0 0.0
2017-Nov-06 00:00N 40°40' W 074°09'0 0.0
2017-Nov-05 23:28N 40°40' W 074°09'0 0.0
2017-Nov-05 23:00N 40°40' W 074°09'0 0.0
2017-Nov-05 22:30N 40°40' W 074°09'0 0.0
2017-Nov-05 22:00N 40°40' W 074°09'0 0.0
2017-Nov-05 21:30N 40°40' W 074°09'0 0.0
2017-Nov-05 21:00N 40°40' W 074°09'0 0.0
2017-Nov-05 20:27N 40°40' W 074°09'0 0.0
2017-Nov-05 20:00N 40°40' W 074°09'0 0.0
2017-Nov-05 19:30N 40°40' W 074°09'0 0.0
2017-Nov-05 19:00N 40°40' W 074°09'0 0.0
2017-Nov-05 18:30N 40°40' W 074°09'0 0.0
2017-Nov-05 18:00N 40°40' W 074°09'0 0.0
2017-Nov-05 17:30N 40°40' W 074°09'0 0.0
2017-Nov-05 17:00N 40°40' W 074°09'1 2.7
2017-Nov-05 16:30N 40°39' W 074°09'4 7.2
2017-Nov-05 16:00N 40°39' W 074°04'5 9.4
2017-Nov-05 15:30N 40°35' W 074°02'712.8
2017-Nov-05 15:00N 40°30' W 073°56'510.0
2017-Nov-05 14:30N 40°28' W 073°50'3 6.6
2017-Nov-05 14:00N 40°27' W 073°46'1 1.6
2017-Nov-05 13:30N 40°27' W 073°45'1 2.0
2017-Nov-05 12:59N 40°27' W 073°44'  
2017-Nov-03 02:42N 43°48' W 066°48'314.9
2017-Nov-03 02:30N 43°45' W 066°48'  
Track history (hours):
 
Tides and Currents Weather Stations Pressure Air Temp Water Temp Dewpoint Dewpoint Depression Visibility Wind Speed Wind Dir Waves Ship Positions

As Fabrizia

Last reported at 2017-Nov-12 08:42 UTC. Time now 2017-Nov-24 18:48 UTC.
Position N 25°26' W 079°38'.
Warning: this ship's position is 12 days out of date.

Length 166 m.

Type: Ship (hazmat cat A). MMSI: 255806069.

Date/timePositionNaut miles runAvg speedWind from/ knotsBaromVisibWave heightAir tempDewpointWater temp
2017-Nov-12 08:42N 25°26' W 079°38'313.3
2017-Nov-12 08:30N 25°29' W 079°39'612.0
2017-Nov-12 08:00N 25°35' W 079°40'713.2
2017-Nov-12 07:30N 25°40' W 079°44'714.4
2017-Nov-12 07:00N 25°43' W 079°51'714.6
2017-Nov-12 06:30N 25°45' W 079°59'611.7
2017-Nov-12 06:00N 25°46' W 080°05'3 5.6
2017-Nov-12 05:30N 25°46' W 080°09'0 0.7
2017-Nov-12 05:00N 25°46' W 080°09'0 0.0
2017-Nov-12 04:30N 25°46' W 080°09'0 0.0
2017-Nov-12 03:59N 25°46' W 080°09'0 0.0
2017-Nov-12 03:30N 25°46' W 080°09'0 0.0
2017-Nov-12 03:00N 25°46' W 080°09'0 0.0
2017-Nov-12 02:30N 25°46' W 080°09'0 0.0
2017-Nov-12 02:00N 25°46' W 080°09'0 0.0
2017-Nov-12 01:31N 25°46' W 080°09'0 0.0
2017-Nov-12 01:01N 25°46' W 080°09'0 0.0
2017-Nov-12 00:31N 25°46' W 080°09'0 0.0
2017-Nov-11 23:58N 25°46' W 080°09'0 0.0
2017-Nov-11 23:28N 25°46' W 080°09'0 0.0
2017-Nov-11 22:58N 25°46' W 080°09'0 0.0
2017-Nov-11 22:30N 25°46' W 080°09'0 0.0
2017-Nov-11 22:00N 25°46' W 080°09'0 0.0
2017-Nov-11 21:30N 25°46' W 080°09'0 0.0
2017-Nov-11 21:00N 25°46' W 080°09'0 0.0
2017-Nov-11 20:30N 25°46' W 080°09'0 0.0
2017-Nov-11 20:00N 25°46' W 080°09'0 0.0
2017-Nov-11 19:30N 25°46' W 080°09'0 0.0
2017-Nov-11 18:50N 25°46' W 080°09'1 2.8
2017-Nov-11 18:30N 25°46' W 080°08'4 8.4
2017-Nov-11 18:01N 25°46' W 080°03'4 8.6
2017-Nov-11 17:30N 25°50' W 080°01'510.9
2017-Nov-11 17:01N 25°56' W 080°01'611.6
2017-Nov-11 16:31N 26°02' W 080°00'611.6
2017-Nov-11 16:01N 26°07' W 079°60'611.5
2017-Nov-11 15:30N 26°13' W 079°59'612.4
2017-Nov-11 15:00N 26°19' W 079°59'713.8
2017-Nov-11 14:31N 26°26' W 079°58'713.4
2017-Nov-11 14:01N 26°33' W 079°58'713.8
2017-Nov-11 13:30N 26°40' W 079°57'713.7
2017-Nov-11 13:00N 26°46' W 079°56'713.9
2017-Nov-11 12:30N 26°53' W 079°55'713.8
2017-Nov-11 12:00N 27°00' W 079°55'28014.2
2017-Nov-10 16:18N 31°40' W 080°14'914.2
2017-Nov-10 15:41N 31°49' W 080°15'412.2
2017-Nov-10 15:23N 31°52' W 080°15'4 9.7
2017-Nov-10 14:57N 31°54' W 080°20'5 9.7
2017-Nov-10 14:25N 31°56' W 080°26'4 9.4
2017-Nov-10 14:00N 31°57' W 080°30'5 9.4
2017-Nov-10 13:30N 31°57' W 080°36'5 9.5
2017-Nov-10 13:00N 31°58' W 080°41'510.2
2017-Nov-10 12:30N 31°60' W 080°47'713.2
2017-Nov-10 12:00N 32°02' W 080°54'612.9
2017-Nov-10 11:30N 32°06' W 081°00'4 8.8
2017-Nov-10 11:00N 32°05' W 081°05'3 6.1
2017-Nov-10 10:30N 32°07' W 081°08'0 0.5
2017-Nov-10 10:00N 32°07' W 081°08'0 0.0
2017-Nov-10 09:26N 32°07' W 081°08'0 0.1
2017-Nov-10 09:00N 32°07' W 081°08'0 0.0
2017-Nov-10 08:29N 32°07' W 081°08'0 0.0
2017-Nov-10 07:59N 32°07' W 081°08'0 0.0
2017-Nov-10 07:29N 32°07' W 081°08'0 0.0
2017-Nov-10 06:59N 32°07' W 081°08'0 0.0
2017-Nov-10 06:29N 32°07' W 081°08'0 0.0
2017-Nov-10 05:59N 32°07' W 081°08'0 0.0
2017-Nov-10 05:29N 32°07' W 081°08'0 0.0
2017-Nov-10 04:47N 32°07' W 081°08'0 0.0
2017-Nov-10 04:29N 32°07' W 081°08'0 0.0
2017-Nov-10 03:59N 32°07' W 081°08'0 0.0
2017-Nov-10 03:29N 32°07' W 081°08'0 0.0
2017-Nov-10 02:59N 32°07' W 081°08'0 0.0
2017-Nov-10 02:29N 32°07' W 081°08'0 0.0
2017-Nov-10 01:59N 32°07' W 081°08'0 0.0
2017-Nov-10 01:23N 32°07' W 081°08'0 0.0
2017-Nov-10 00:59N 32°07' W 081°08'0 0.0
2017-Nov-10 00:29N 32°07' W 081°08'0 0.0
2017-Nov-09 23:59N 32°07' W 081°08'0 0.0
2017-Nov-09 23:23N 32°07' W 081°08'0 0.0
2017-Nov-09 22:59N 32°07' W 081°08'0 0.0
2017-Nov-09 22:29N 32°07' W 081°08'0 0.0
2017-Nov-09 21:59N 32°07' W 081°08'0 0.3
2017-Nov-09 21:30N 32°07' W 081°08'2 4.9
2017-Nov-09 21:00N 32°05' W 081°06'3 5.4
2017-Nov-09 20:30N 32°05' W 081°03'4 8.0
2017-Nov-09 20:00N 32°04' W 080°58'5 9.0
2017-Nov-09 19:30N 32°02' W 080°54'612.5
2017-Nov-09 19:00N 31°60' W 080°47'713.8
2017-Nov-09 18:30N 31°58' W 080°39'1 1.4
2017-Nov-09 17:49N 31°57' W 080°38'0 0.1
2017-Nov-09 17:25N 31°57' W 080°38'0 0.0
2017-Nov-09 16:55N 31°57' W 080°38'0 0.0
2017-Nov-09 16:25N 31°57' W 080°38'0 0.0
2017-Nov-09 15:55N 31°57' W 080°38'0 0.0
2017-Nov-09 13:55N 31°57' W 080°38'0 0.0
2017-Nov-09 13:25N 31°57' W 080°38'0 0.0
2017-Nov-09 12:59N 31°57' W 080°38'0 0.0
2017-Nov-09 12:27N 31°57' W 080°38'0 0.1
2017-Nov-09 12:00N 31°57' W 080°38'0 0.0
2017-Nov-09 11:30N 31°57' W 080°38'0 0.0
2017-Nov-09 10:54N 31°57' W 080°38'0 0.1
2017-Nov-09 10:30N 31°57' W 080°38'0 0.0
2017-Nov-09 10:00N 31°57' W 080°38'0 0.0
2017-Nov-09 09:30N 31°57' W 080°38'0 0.0
2017-Nov-09 09:00N 31°57' W 080°38'0 0.0
2017-Nov-09 08:30N 31°57' W 080°38'0 0.1
2017-Nov-09 08:01N 31°57' W 080°38'2 4.9
2017-Nov-09 07:30N 31°58' W 080°35'2 3.2
2017-Nov-09 06:50N 31°59' W 080°33'0 0.0
2017-Nov-09 06:26N 31°59' W 080°33'0 0.0
2017-Nov-09 05:51N 31°59' W 080°33'0 0.0
2017-Nov-08 21:03N 31°59' W 080°33'0 0.1
2017-Nov-08 20:57N 31°59' W 080°33'0 0.0
2017-Nov-08 20:21N 31°59' W 080°33'0 0.0
2017-Nov-08 19:57N 31°59' W 080°33'0 0.0
2017-Nov-08 19:30N 31°59' W 080°33'0 0.0
2017-Nov-08 19:00N 31°59' W 080°33'0 0.0
2017-Nov-08 18:31N 31°59' W 080°33'0 0.0
2017-Nov-08 17:58N 31°59' W 080°33'0 0.0
2017-Nov-08 17:28N 31°59' W 080°33'0 0.0
2017-Nov-08 16:58N 31°59' W 080°33'0 0.1
2017-Nov-08 16:28N 31°59' W 080°33'0 0.2
2017-Nov-08 15:58N 31°59' W 080°33'0 0.1
2017-Nov-08 15:23N 31°59' W 080°33'0 0.1
2017-Nov-08 14:49N 31°59' W 080°33'0 0.0
2017-Nov-08 14:25N 31°59' W 080°33'0 0.0
2017-Nov-08 13:55N 31°59' W 080°33'0 0.0
2017-Nov-08 13:19N 31°59' W 080°33'0 0.0
2017-Nov-08 12:55N 31°59' W 080°33'0 0.0
2017-Nov-08 12:13N 31°59' W 080°33'0 0.1
2017-Nov-08 11:55N 31°59' W 080°33'0 0.1
2017-Nov-08 11:19N 31°59' W 080°33'0 0.1
2017-Nov-08 10:49N 31°59' W 080°33'0 0.0
2017-Nov-08 10:25N 31°59' W 080°32'0 0.0
2017-Nov-08 09:55N 31°59' W 080°32'0 0.0
2017-Nov-08 09:25N 31°59' W 080°32'0 0.0
2017-Nov-08 08:49N 31°59' W 080°32'0 0.2
2017-Nov-08 08:29N 31°59' W 080°33'1 2.8
2017-Nov-08 08:00N 31°59' W 080°31'5 9.6
2017-Nov-08 07:30N 31°59' W 080°25'5 9.6
2017-Nov-08 07:00N 31°59' W 080°20'5 9.5
2017-Nov-08 06:30N 31°59' W 080°14'5 9.2
2017-Nov-08 06:00N 31°59' W 080°09'510.3
2017-Nov-08 05:30N 31°59' W 080°03'713.1
2017-Nov-08 05:00N 31°60' W 079°55'712.5
2017-Nov-08 04:27N 32°02' W 079°47'613.0
2017-Nov-08 03:58N 32°05' W 079°41'813.0
2017-Nov-08 03:23N 32°09' W 079°33'713.0
2017-Nov-08 02:49N 32°13' W 079°26'17813.2
2017-Nov-07 13:21N 34°03' W 076°39'814.6
2017-Nov-07 12:48N 34°08' W 076°32'414.9
2017-Nov-07 12:30N 34°11' W 076°28'714.7
2017-Nov-07 12:00N 34°16' W 076°21'714.8
2017-Nov-07 11:30N 34°21' W 076°15'714.6
2017-Nov-07 11:01N 34°26' W 076°08'714.7
2017-Nov-07 10:30N 34°31' W 076°01'5414.8
2017-Nov-07 06:53N 35°08' W 075°14'614.9
2017-Nov-07 06:30N 35°13' W 075°10'1514.9
2017-Nov-07 05:30N 35°27' W 075°03'31611.7
2017-Nov-06 02:30N 40°40' W 074°09'0 0.0
2017-Nov-06 02:00N 40°40' W 074°09'0 0.0
2017-Nov-06 01:30N 40°40' W 074°09'0 0.0
2017-Nov-06 01:00N 40°40' W 074°09'0 0.0
2017-Nov-06 00:30N 40°40' W 074°09'0 0.0
2017-Nov-06 00:00N 40°40' W 074°09'0 0.0
2017-Nov-05 23:28N 40°40' W 074°09'0 0.0
2017-Nov-05 23:00N 40°40' W 074°09'0 0.0
2017-Nov-05 22:30N 40°40' W 074°09'0 0.0
2017-Nov-05 22:00N 40°40' W 074°09'0 0.0
2017-Nov-05 21:30N 40°40' W 074°09'0 0.0
2017-Nov-05 21:00N 40°40' W 074°09'0 0.0
2017-Nov-05 20:27N 40°40' W 074°09'0 0.0
2017-Nov-05 20:00N 40°40' W 074°09'0 0.0
2017-Nov-05 19:30N 40°40' W 074°09'0 0.0
2017-Nov-05 19:00N 40°40' W 074°09'0 0.0
2017-Nov-05 18:30N 40°40' W 074°09'0 0.0
2017-Nov-05 18:00N 40°40' W 074°09'0 0.0
2017-Nov-05 17:30N 40°40' W 074°09'0 0.0
2017-Nov-05 17:00N 40°40' W 074°09'1 2.7
2017-Nov-05 16:30N 40°39' W 074°09'4 7.2
2017-Nov-05 16:00N 40°39' W 074°04'5 9.4
2017-Nov-05 15:30N 40°35' W 074°02'712.8
2017-Nov-05 15:00N 40°30' W 073°56'510.0
2017-Nov-05 14:30N 40°28' W 073°50'3 6.6
2017-Nov-05 14:00N 40°27' W 073°46'1 1.6
2017-Nov-05 13:30N 40°27' W 073°45'1 2.0
2017-Nov-05 12:59N 40°27' W 073°44'  
2017-Nov-03 02:42N 43°48' W 066°48'314.9
2017-Nov-03 02:30N 43°45' W 066°48'  

Dump ship's entire track history